sensor_id;sensor_type;location;lat;lon;timestamp;temperature;humidity
13203;DHT22;6666;51.626;7.530;2023-05-10T00:01:29;14.10;99.90
13203;DHT22;6666;51.626;7.530;2023-05-10T00:03:57;14.20;99.90
13203;DHT22;6666;51.626;7.530;2023-05-10T00:06:26;14.20;99.90
13203;DHT22;6666;51.626;7.530;2023-05-10T00:08:54;14.20;99.90
13203;DHT22;6666;51.626;7.530;2023-05-10T00:11:22;14.20;99.90
13203;DHT22;6666;51.626;7.530;2023-05-10T00:13:52;14.10;99.90
13203;DHT22;6666;51.626;7.530;2023-05-10T00:16:21;14.10;99.90
13203;DHT22;6666;51.626;7.530;2023-05-10T00:18:49;14.00;99.90
13203;DHT22;6666;51.626;7.530;2023-05-10T00:21:17;14.10;99.90
13203;DHT22;6666;51.626;7.530;2023-05-10T00:23:45;14.10;99.90
13203;DHT22;6666;51.626;7.530;2023-05-10T00:26:13;14.00;99.90
13203;DHT22;6666;51.626;7.530;2023-05-10T00:28:48;14.00;99.90
13203;DHT22;6666;51.626;7.530;2023-05-10T00:31:19;14.10;99.90
13203;DHT22;6666;51.626;7.530;2023-05-10T00:33:47;14.00;99.90
13203;DHT22;6666;51.626;7.530;2023-05-10T00:36:16;14.00;99.90
13203;DHT22;6666;51.626;7.530;2023-05-10T00:38:44;14.00;99.90
13203;DHT22;6666;51.626;7.530;2023-05-10T00:41:12;14.00;99.90
13203;DHT22;6666;51.626;7.530;2023-05-10T00:43:41;14.00;99.90
13203;DHT22;6666;51.626;7.530;2023-05-10T00:46:09;14.00;99.90
13203;DHT22;6666;51.626;7.530;2023-05-10T00:48:40;13.90;99.90
13203;DHT22;6666;51.626;7.530;2023-05-10T00:51:08;14.00;99.90
13203;DHT22;6666;51.626;7.530;2023-05-10T00:53:37;14.00;99.90
13203;DHT22;6666;51.626;7.530;2023-05-10T00:56:05;14.00;99.90
13203;DHT22;6666;51.626;7.530;2023-05-10T00:58:34;14.00;99.90
13203;DHT22;6666;51.626;7.530;2023-05-10T01:01:03;14.00;99.90
13203;DHT22;6666;51.626;7.530;2023-05-10T01:03:33;14.00;99.90
13203;DHT22;6666;51.626;7.530;2023-05-10T01:06:05;14.00;99.90
13203;DHT22;6666;51.626;7.530;2023-05-10T01:08:33;13.90;99.90
13203;DHT22;6666;51.626;7.530;2023-05-10T01:11:01;13.90;99.90
13203;DHT22;6666;51.626;7.530;2023-05-10T01:13:33;13.90;99.90
13203;DHT22;6666;51.626;7.530;2023-05-10T01:16:03;14.00;99.90
13203;DHT22;6666;51.626;7.530;2023-05-10T01:18:35;14.00;99.90
13203;DHT22;6666;51.626;7.530;2023-05-10T01:21:16;13.90;99.90
13203;DHT22;6666;51.626;7.530;2023-05-10T01:27:02;13.90;99.90
13203;DHT22;6666;51.626;7.530;2023-05-10T01:30:05;13.90;99.90
13203;DHT22;6666;51.626;7.530;2023-05-10T01:32:48;13.90;99.90
13203;DHT22;6666;51.626;7.530;2023-05-10T01:35:32;13.90;99.90
13203;DHT22;6666;51.626;7.530;2023-05-10T01:38:11;13.90;99.90
13203;DHT22;6666;51.626;7.530;2023-05-10T01:40:47;14.00;99.90
13203;DHT22;6666;51.626;7.530;2023-05-10T01:43:21;13.90;99.90
13203;DHT22;6666;51.626;7.530;2023-05-10T01:46:00;13.90;99.90
13203;DHT22;6666;51.626;7.530;2023-05-10T01:48:40;13.90;99.90
13203;DHT22;6666;51.626;7.530;2023-05-10T01:51:14;13.90;99.90
13203;DHT22;6666;51.626;7.530;2023-05-10T01:53:46;13.90;99.90
13203;DHT22;6666;51.626;7.530;2023-05-10T01:56:17;13.80;99.90
13203;DHT22;6666;51.626;7.530;2023-05-10T01:58:48;13.80;99.90
13203;DHT22;6666;51.626;7.530;2023-05-10T02:01:20;13.90;99.90
13203;DHT22;6666;51.626;7.530;2023-05-10T02:03:52;13.80;99.90
13203;DHT22;6666;51.626;7.530;2023-05-10T02:06:22;13.80;99.90
13203;DHT22;6666;51.626;7.530;2023-05-10T02:08:53;13.80;99.90
13203;DHT22;6666;51.626;7.530;2023-05-10T02:11:23;13.80;99.90
13203;DHT22;6666;51.626;7.530;2023-05-10T02:13:54;13.90;99.90
13203;DHT22;6666;51.626;7.530;2023-05-10T02:16:28;13.80;99.90
13203;DHT22;6666;51.626;7.530;2023-05-10T02:19:01;13.80;99.90
13203;DHT22;6666;51.626;7.530;2023-05-10T02:21:30;13.70;99.90
13203;DHT22;6666;51.626;7.530;2023-05-10T02:24:02;13.70;99.90
13203;DHT22;6666;51.626;7.530;2023-05-10T02:26:33;13.70;99.90
13203;DHT22;6666;51.626;7.530;2023-05-10T02:29:03;13.70;99.90
13203;DHT22;6666;51.626;7.530;2023-05-10T02:31:33;13.60;99.90
13203;DHT22;6666;51.626;7.530;2023-05-10T02:34:06;13.60;99.90
13203;DHT22;6666;51.626;7.530;2023-05-10T02:36:35;13.50;99.90
13203;DHT22;6666;51.626;7.530;2023-05-10T02:39:04;13.50;99.90
13203;DHT22;6666;51.626;7.530;2023-05-10T02:41:37;13.40;99.90
13203;DHT22;6666;51.626;7.530;2023-05-10T02:44:09;13.50;99.90
13203;DHT22;6666;51.626;7.530;2023-05-10T02:46:37;13.40;99.90
13203;DHT22;6666;51.626;7.530;2023-05-10T02:49:07;13.40;99.90
13203;DHT22;6666;51.626;7.530;2023-05-10T02:51:39;13.30;99.90
13203;DHT22;6666;51.626;7.530;2023-05-10T02:54:11;13.30;99.90
13203;DHT22;6666;51.626;7.530;2023-05-10T02:56:43;13.30;99.90
13203;DHT22;6666;51.626;7.530;2023-05-10T02:59:14;13.20;99.90
13203;DHT22;6666;51.626;7.530;2023-05-10T03:01:42;13.30;99.90
13203;DHT22;6666;51.626;7.530;2023-05-10T03:04:13;13.20;99.90
13203;DHT22;6666;51.626;7.530;2023-05-10T03:06:42;13.20;99.90
13203;DHT22;6666;51.626;7.530;2023-05-10T03:09:11;13.20;99.90
13203;DHT22;6666;51.626;7.530;2023-05-10T03:11:48;13.20;99.90
13203;DHT22;6666;51.626;7.530;2023-05-10T03:14:30;13.20;99.90
13203;DHT22;6666;51.626;7.530;2023-05-10T03:17:07;13.20;99.90
13203;DHT22;6666;51.626;7.530;2023-05-10T03:19:43;13.20;99.90
13203;DHT22;6666;51.626;7.530;2023-05-10T03:22:19;13.00;99.90
13203;DHT22;6666;51.626;7.530;2023-05-10T03:24:51;13.10;99.90
13203;DHT22;6666;51.626;7.530;2023-05-10T03:27:22;13.00;99.90
13203;DHT22;6666;51.626;7.530;2023-05-10T03:29:53;13.10;99.90
13203;DHT22;6666;51.626;7.530;2023-05-10T03:32:22;13.10;99.90
13203;DHT22;6666;51.626;7.530;2023-05-10T03:34:52;13.10;99.90
13203;DHT22;6666;51.626;7.530;2023-05-10T03:37:20;13.10;99.90
13203;DHT22;6666;51.626;7.530;2023-05-10T03:39:48;13.10;99.90
13203;DHT22;6666;51.626;7.530;2023-05-10T03:42:16;13.10;99.90
13203;DHT22;6666;51.626;7.530;2023-05-10T03:44:45;13.00;99.90
13203;DHT22;6666;51.626;7.530;2023-05-10T03:47:15;13.10;99.90
13203;DHT22;6666;51.626;7.530;2023-05-10T03:49:44;13.10;99.90
13203;DHT22;6666;51.626;7.530;2023-05-10T03:52:14;13.10;99.90
13203;DHT22;6666;51.626;7.530;2023-05-10T03:54:42;13.20;99.90
13203;DHT22;6666;51.626;7.530;2023-05-10T03:57:11;13.10;99.90
13203;DHT22;6666;51.626;7.530;2023-05-10T03:59:39;13.10;99.90
13203;DHT22;6666;51.626;7.530;2023-05-10T04:02:07;13.10;99.90
13203;DHT22;6666;51.626;7.530;2023-05-10T04:04:35;13.20;99.90
13203;DHT22;6666;51.626;7.530;2023-05-10T04:07:04;13.20;99.90
13203;DHT22;6666;51.626;7.530;2023-05-10T04:09:34;13.20;99.90
13203;DHT22;6666;51.626;7.530;2023-05-10T04:12:03;13.20;99.90
13203;DHT22;6666;51.626;7.530;2023-05-10T04:14:31;13.20;99.90
13203;DHT22;6666;51.626;7.530;2023-05-10T04:16:59;13.20;99.90
13203;DHT22;6666;51.626;7.530;2023-05-10T04:19:29;13.20;99.90
13203;DHT22;6666;51.626;7.530;2023-05-10T04:21:57;13.20;99.90
13203;DHT22;6666;51.626;7.530;2023-05-10T04:24:25;13.20;99.90
13203;DHT22;6666;51.626;7.530;2023-05-10T04:26:55;13.20;99.90
13203;DHT22;6666;51.626;7.530;2023-05-10T04:29:23;13.30;99.90
13203;DHT22;6666;51.626;7.530;2023-05-10T04:31:52;13.30;99.90
13203;DHT22;6666;51.626;7.530;2023-05-10T04:34:20;13.30;99.90
13203;DHT22;6666;51.626;7.530;2023-05-10T04:36:48;13.30;99.90
13203;DHT22;6666;51.626;7.530;2023-05-10T04:39:16;13.20;99.90
13203;DHT22;6666;51.626;7.530;2023-05-10T04:41:44;13.20;99.90
13203;DHT22;6666;51.626;7.530;2023-05-10T04:44:14;13.30;99.90
13203;DHT22;6666;51.626;7.530;2023-05-10T04:46:42;13.30;99.90
13203;DHT22;6666;51.626;7.530;2023-05-10T04:49:10;13.30;99.90
13203;DHT22;6666;51.626;7.530;2023-05-10T04:51:38;13.30;99.90
13203;DHT22;6666;51.626;7.530;2023-05-10T04:54:06;13.30;99.90
13203;DHT22;6666;51.626;7.530;2023-05-10T04:56:34;13.30;99.90
13203;DHT22;6666;51.626;7.530;2023-05-10T04:59:03;13.30;99.90
13203;DHT22;6666;51.626;7.530;2023-05-10T05:01:32;13.30;99.90
13203;DHT22;6666;51.626;7.530;2023-05-10T05:04:00;13.20;99.90
13203;DHT22;6666;51.626;7.530;2023-05-10T05:06:28;13.30;99.90
13203;DHT22;6666;51.626;7.530;2023-05-10T05:08:57;13.20;99.90
13203;DHT22;6666;51.626;7.530;2023-05-10T05:11:25;13.30;99.90
13203;DHT22;6666;51.626;7.530;2023-05-10T05:13:53;13.30;99.90
13203;DHT22;6666;51.626;7.530;2023-05-10T05:16:21;13.30;99.90
13203;DHT22;6666;51.626;7.530;2023-05-10T05:18:50;13.30;99.90
13203;DHT22;6666;51.626;7.530;2023-05-10T05:21:19;13.30;99.90
13203;DHT22;6666;51.626;7.530;2023-05-10T05:23:48;13.30;99.90
13203;DHT22;6666;51.626;7.530;2023-05-10T05:26:16;13.40;99.90
13203;DHT22;6666;51.626;7.530;2023-05-10T05:28:44;13.40;99.90
13203;DHT22;6666;51.626;7.530;2023-05-10T05:31:12;13.50;99.90
13203;DHT22;6666;51.626;7.530;2023-05-10T05:33:40;13.50;99.90
13203;DHT22;6666;51.626;7.530;2023-05-10T05:36:10;13.50;99.90
13203;DHT22;6666;51.626;7.530;2023-05-10T05:38:38;13.50;99.90
13203;DHT22;6666;51.626;7.530;2023-05-10T05:41:06;13.50;99.90
13203;DHT22;6666;51.626;7.530;2023-05-10T05:43:34;13.60;99.90
13203;DHT22;6666;51.626;7.530;2023-05-10T05:46:04;13.60;99.90
13203;DHT22;6666;51.626;7.530;2023-05-10T05:48:32;13.60;99.90
13203;DHT22;6666;51.626;7.530;2023-05-10T05:51:00;13.50;99.90
13203;DHT22;6666;51.626;7.530;2023-05-10T05:53:33;13.60;99.90
13203;DHT22;6666;51.626;7.530;2023-05-10T05:56:02;13.60;99.90
13203;DHT22;6666;51.626;7.530;2023-05-10T05:58:30;13.60;99.90
13203;DHT22;6666;51.626;7.530;2023-05-10T06:00:58;13.70;99.90
13203;DHT22;6666;51.626;7.530;2023-05-10T06:03:26;13.60;99.90
13203;DHT22;6666;51.626;7.530;2023-05-10T06:05:54;13.70;99.90
13203;DHT22;6666;51.626;7.530;2023-05-10T06:08:22;13.70;99.90
13203;DHT22;6666;51.626;7.530;2023-05-10T06:10:52;13.80;99.90
13203;DHT22;6666;51.626;7.530;2023-05-10T06:13:20;13.80;99.90
13203;DHT22;6666;51.626;7.530;2023-05-10T06:15:48;13.90;99.90
13203;DHT22;6666;51.626;7.530;2023-05-10T06:18:16;13.80;99.90
13203;DHT22;6666;51.626;7.530;2023-05-10T06:20:44;13.80;99.90
13203;DHT22;6666;51.626;7.530;2023-05-10T06:23:12;13.90;99.90
13203;DHT22;6666;51.626;7.530;2023-05-10T06:25:41;14.00;99.90
13203;DHT22;6666;51.626;7.530;2023-05-10T06:28:11;14.00;99.90
13203;DHT22;6666;51.626;7.530;2023-05-10T06:30:39;14.00;99.90
13203;DHT22;6666;51.626;7.530;2023-05-10T06:33:07;14.00;99.90
13203;DHT22;6666;51.626;7.530;2023-05-10T06:35:35;14.10;99.90
13203;DHT22;6666;51.626;7.530;2023-05-10T06:38:03;14.20;99.90
13203;DHT22;6666;51.626;7.530;2023-05-10T06:40:31;14.20;99.90
13203;DHT22;6666;51.626;7.530;2023-05-10T06:42:59;14.30;99.90
13203;DHT22;6666;51.626;7.530;2023-05-10T06:45:29;14.20;99.90
13203;DHT22;6666;51.626;7.530;2023-05-10T06:47:57;14.30;99.90
13203;DHT22;6666;51.626;7.530;2023-05-10T06:50:25;14.20;99.90
13203;DHT22;6666;51.626;7.530;2023-05-10T06:52:53;14.30;99.90
13203;DHT22;6666;51.626;7.530;2023-05-10T06:55:22;14.50;99.90
13203;DHT22;6666;51.626;7.530;2023-05-10T06:57:50;14.90;99.90
13203;DHT22;6666;51.626;7.530;2023-05-10T07:00:19;15.00;99.90
13203;DHT22;6666;51.626;7.530;2023-05-10T07:02:49;15.20;99.90
13203;DHT22;6666;51.626;7.530;2023-05-10T07:05:18;15.50;99.90
13203;DHT22;6666;51.626;7.530;2023-05-10T07:07:47;15.30;99.90
13203;DHT22;6666;51.626;7.530;2023-05-10T07:10:15;15.40;99.90
13203;DHT22;6666;51.626;7.530;2023-05-10T07:12:43;15.50;99.90
13203;DHT22;6666;51.626;7.530;2023-05-10T07:15:11;15.60;99.90
13203;DHT22;6666;51.626;7.530;2023-05-10T07:17:40;15.70;99.90
13203;DHT22;6666;51.626;7.530;2023-05-10T07:20:13;15.70;99.90
13203;DHT22;6666;51.626;7.530;2023-05-10T07:22:41;15.30;99.90
13203;DHT22;6666;51.626;7.530;2023-05-10T07:25:09;15.40;99.90
13203;DHT22;6666;51.626;7.530;2023-05-10T07:27:37;15.30;99.90
13203;DHT22;6666;51.626;7.530;2023-05-10T07:30:08;15.10;99.90
13203;DHT22;6666;51.626;7.530;2023-05-10T07:32:36;15.30;99.90
13203;DHT22;6666;51.626;7.530;2023-05-10T07:35:06;15.50;99.90
13203;DHT22;6666;51.626;7.530;2023-05-10T07:37:36;15.60;99.90
13203;DHT22;6666;51.626;7.530;2023-05-10T07:40:06;15.60;99.90
13203;DHT22;6666;51.626;7.530;2023-05-10T07:42:34;15.70;99.90
13203;DHT22;6666;51.626;7.530;2023-05-10T07:45:03;16.10;99.90
13203;DHT22;6666;51.626;7.530;2023-05-10T07:47:31;16.10;99.90
13203;DHT22;6666;51.626;7.530;2023-05-10T07:49:59;16.30;99.90
13203;DHT22;6666;51.626;7.530;2023-05-10T07:52:28;16.30;99.90
13203;DHT22;6666;51.626;7.530;2023-05-10T07:54:57;16.40;99.90
13203;DHT22;6666;51.626;7.530;2023-05-10T07:57:25;16.60;99.90
13203;DHT22;6666;51.626;7.530;2023-05-10T07:59:53;16.70;99.90
13203;DHT22;6666;51.626;7.530;2023-05-10T08:02:21;16.80;99.90
13203;DHT22;6666;51.626;7.530;2023-05-10T08:04:49;17.10;99.90
13203;DHT22;6666;51.626;7.530;2023-05-10T08:07:18;17.20;99.90
13203;DHT22;6666;51.626;7.530;2023-05-10T08:09:46;17.10;99.90
13203;DHT22;6666;51.626;7.530;2023-05-10T08:12:16;16.90;99.90
13203;DHT22;6666;51.626;7.530;2023-05-10T08:14:44;16.80;99.90
13203;DHT22;6666;51.626;7.530;2023-05-10T08:17:12;16.40;99.90
13203;DHT22;6666;51.626;7.530;2023-05-10T08:19:40;16.40;99.90
13203;DHT22;6666;51.626;7.530;2023-05-10T08:22:08;16.40;99.90
13203;DHT22;6666;51.626;7.530;2023-05-10T08:24:37;16.40;99.90
13203;DHT22;6666;51.626;7.530;2023-05-10T08:27:05;16.30;99.90
13203;DHT22;6666;51.626;7.530;2023-05-10T08:29:35;16.50;99.90
13203;DHT22;6666;51.626;7.530;2023-05-10T08:32:16;16.80;99.90
13203;DHT22;6666;51.626;7.530;2023-05-10T08:34:44;16.70;99.90
13203;DHT22;6666;51.626;7.530;2023-05-10T08:37:12;16.70;99.90
13203;DHT22;6666;51.626;7.530;2023-05-10T08:39:40;16.90;99.90
13203;DHT22;6666;51.626;7.530;2023-05-10T08:42:09;17.20;99.90
13203;DHT22;6666;51.626;7.530;2023-05-10T08:44:38;17.40;99.90
13203;DHT22;6666;51.626;7.530;2023-05-10T08:47:08;17.30;99.90
13203;DHT22;6666;51.626;7.530;2023-05-10T08:49:37;17.30;99.90
13203;DHT22;6666;51.626;7.530;2023-05-10T08:52:05;17.10;99.90
13203;DHT22;6666;51.626;7.530;2023-05-10T08:54:34;17.00;99.90
13203;DHT22;6666;51.626;7.530;2023-05-10T08:57:03;16.70;99.90
13203;DHT22;6666;51.626;7.530;2023-05-10T08:59:32;16.50;99.90
13203;DHT22;6666;51.626;7.530;2023-05-10T09:02:02;16.30;99.90
13203;DHT22;6666;51.626;7.530;2023-05-10T09:04:32;16.10;99.90
13203;DHT22;6666;51.626;7.530;2023-05-10T09:07:00;16.00;99.90
13203;DHT22;6666;51.626;7.530;2023-05-10T09:09:29;16.00;99.90
13203;DHT22;6666;51.626;7.530;2023-05-10T09:11:57;16.00;99.90
13203;DHT22;6666;51.626;7.530;2023-05-10T09:14:25;16.20;99.90
13203;DHT22;6666;51.626;7.530;2023-05-10T09:16:54;16.70;99.90
13203;DHT22;6666;51.626;7.530;2023-05-10T09:19:24;17.10;99.90
13203;DHT22;6666;51.626;7.530;2023-05-10T09:21:52;17.90;99.90
13203;DHT22;6666;51.626;7.530;2023-05-10T09:24:25;18.20;99.90
13203;DHT22;6666;51.626;7.530;2023-05-10T09:26:53;18.20;99.90
13203;DHT22;6666;51.626;7.530;2023-05-10T09:29:21;17.50;99.90
13203;DHT22;6666;51.626;7.530;2023-05-10T09:31:51;17.40;99.90
13203;DHT22;6666;51.626;7.530;2023-05-10T09:34:30;17.10;99.90
13203;DHT22;6666;51.626;7.530;2023-05-10T09:36:59;17.00;99.90
13203;DHT22;6666;51.626;7.530;2023-05-10T09:39:32;17.10;99.90
13203;DHT22;6666;51.626;7.530;2023-05-10T09:42:02;17.20;99.90
13203;DHT22;6666;51.626;7.530;2023-05-10T09:44:31;17.00;99.90
13203;DHT22;6666;51.626;7.530;2023-05-10T09:47:00;16.80;99.90
13203;DHT22;6666;51.626;7.530;2023-05-10T09:49:30;16.60;99.90
13203;DHT22;6666;51.626;7.530;2023-05-10T09:52:01;16.50;99.90
13203;DHT22;6666;51.626;7.530;2023-05-10T09:54:32;16.50;99.90
13203;DHT22;6666;51.626;7.530;2023-05-10T09:57:02;16.70;99.90
13203;DHT22;6666;51.626;7.530;2023-05-10T09:59:32;16.70;99.90
13203;DHT22;6666;51.626;7.530;2023-05-10T10:02:01;16.90;99.90
13203;DHT22;6666;51.626;7.530;2023-05-10T10:04:39;17.20;99.90
13203;DHT22;6666;51.626;7.530;2023-05-10T10:07:07;17.50;99.90
13203;DHT22;6666;51.626;7.530;2023-05-10T10:09:35;17.70;99.90
13203;DHT22;6666;51.626;7.530;2023-05-10T10:12:04;17.60;99.90
13203;DHT22;6666;51.626;7.530;2023-05-10T10:14:32;17.70;99.90
13203;DHT22;6666;51.626;7.530;2023-05-10T10:17:01;17.90;99.90
13203;DHT22;6666;51.626;7.530;2023-05-10T10:19:35;18.10;99.90
13203;DHT22;6666;51.626;7.530;2023-05-10T10:22:04;18.50;99.90
13203;DHT22;6666;51.626;7.530;2023-05-10T10:24:33;18.60;99.90
13203;DHT22;6666;51.626;7.530;2023-05-10T10:27:09;18.60;99.90
13203;DHT22;6666;51.626;7.530;2023-05-10T10:29:51;18.50;99.90
13203;DHT22;6666;51.626;7.530;2023-05-10T10:32:26;18.60;99.90
13203;DHT22;6666;51.626;7.530;2023-05-10T10:34:57;18.50;99.90
13203;DHT22;6666;51.626;7.530;2023-05-10T10:37:43;18.70;99.90
13203;DHT22;6666;51.626;7.530;2023-05-10T10:40:28;18.80;99.90
13203;DHT22;6666;51.626;7.530;2023-05-10T10:43:21;18.80;99.90
13203;DHT22;6666;51.626;7.530;2023-05-10T10:46:11;18.90;99.90
13203;DHT22;6666;51.626;7.530;2023-05-10T10:48:41;19.00;99.90
13203;DHT22;6666;51.626;7.530;2023-05-10T10:51:13;19.10;99.90
13203;DHT22;6666;51.626;7.530;2023-05-10T10:53:41;19.10;99.90
13203;DHT22;6666;51.626;7.530;2023-05-10T10:56:12;19.60;99.90
13203;DHT22;6666;51.626;7.530;2023-05-10T10:58:49;19.60;99.90
13203;DHT22;6666;51.626;7.530;2023-05-10T11:01:19;19.60;99.90
13203;DHT22;6666;51.626;7.530;2023-05-10T11:04:17;19.50;99.90
13203;DHT22;6666;51.626;7.530;2023-05-10T11:06:48;19.30;99.90
13203;DHT22;6666;51.626;7.530;2023-05-10T11:09:16;19.40;99.90
13203;DHT22;6666;51.626;7.530;2023-05-10T11:11:52;18.70;99.90
13203;DHT22;6666;51.626;7.530;2023-05-10T11:14:22;18.00;99.90
13203;DHT22;6666;51.626;7.530;2023-05-10T11:16:50;17.70;99.90
13203;DHT22;6666;51.626;7.530;2023-05-10T11:19:19;17.30;99.90
13203;DHT22;6666;51.626;7.530;2023-05-10T11:21:50;17.10;99.90
13203;DHT22;6666;51.626;7.530;2023-05-10T11:24:20;16.90;99.90
13203;DHT22;6666;51.626;7.530;2023-05-10T11:26:50;16.70;99.90
13203;DHT22;6666;51.626;7.530;2023-05-10T11:29:18;16.60;99.90
13203;DHT22;6666;51.626;7.530;2023-05-10T11:31:48;16.60;99.90
13203;DHT22;6666;51.626;7.530;2023-05-10T11:34:23;16.70;99.90
13203;DHT22;6666;51.626;7.530;2023-05-10T11:36:54;16.90;99.90
13203;DHT22;6666;51.626;7.530;2023-05-10T11:39:26;16.90;99.90
13203;DHT22;6666;51.626;7.530;2023-05-10T11:41:55;17.00;99.90
13203;DHT22;6666;51.626;7.530;2023-05-10T11:44:24;17.10;99.90
13203;DHT22;6666;51.626;7.530;2023-05-10T11:46:52;17.20;99.90
13203;DHT22;6666;51.626;7.530;2023-05-10T11:49:20;17.20;99.90
13203;DHT22;6666;51.626;7.530;2023-05-10T11:51:52;17.30;99.90
13203;DHT22;6666;51.626;7.530;2023-05-10T11:54:20;17.30;99.90
13203;DHT22;6666;51.626;7.530;2023-05-10T11:56:50;17.40;99.90
13203;DHT22;6666;51.626;7.530;2023-05-10T11:59:19;17.50;99.90
13203;DHT22;6666;51.626;7.530;2023-05-10T12:01:47;17.80;99.90
13203;DHT22;6666;51.626;7.530;2023-05-10T12:04:15;18.00;99.90
13203;DHT22;6666;51.626;7.530;2023-05-10T12:06:44;18.20;99.90
13203;DHT22;6666;51.626;7.530;2023-05-10T12:09:14;18.10;99.90
13203;DHT22;6666;51.626;7.530;2023-05-10T12:11:49;18.10;99.90
13203;DHT22;6666;51.626;7.530;2023-05-10T12:14:17;18.60;99.90
13203;DHT22;6666;51.626;7.530;2023-05-10T12:16:47;18.40;99.90
13203;DHT22;6666;51.626;7.530;2023-05-10T12:19:18;18.50;99.90
13203;DHT22;6666;51.626;7.530;2023-05-10T12:21:47;18.40;99.90
13203;DHT22;6666;51.626;7.530;2023-05-10T12:24:17;18.60;99.90
13203;DHT22;6666;51.626;7.530;2023-05-10T12:26:46;19.00;99.90
13203;DHT22;6666;51.626;7.530;2023-05-10T12:29:16;18.80;99.90
13203;DHT22;6666;51.626;7.530;2023-05-10T12:31:52;18.70;99.90
13203;DHT22;6666;51.626;7.530;2023-05-10T12:34:24;18.70;99.90
13203;DHT22;6666;51.626;7.530;2023-05-10T12:36:53;18.90;99.90
13203;DHT22;6666;51.626;7.530;2023-05-10T12:39:23;19.00;99.90
13203;DHT22;6666;51.626;7.530;2023-05-10T12:41:51;19.10;99.90
13203;DHT22;6666;51.626;7.530;2023-05-10T12:44:19;18.90;99.90
13203;DHT22;6666;51.626;7.530;2023-05-10T12:46:47;18.80;99.90
13203;DHT22;6666;51.626;7.530;2023-05-10T12:49:15;18.80;99.90
13203;DHT22;6666;51.626;7.530;2023-05-10T12:51:45;18.90;99.90
13203;DHT22;6666;51.626;7.530;2023-05-10T12:54:13;18.80;99.90
13203;DHT22;6666;51.626;7.530;2023-05-10T12:56:43;18.60;99.90
13203;DHT22;6666;51.626;7.530;2023-05-10T12:59:11;18.40;99.90
13203;DHT22;6666;51.626;7.530;2023-05-10T13:01:39;18.40;99.90
13203;DHT22;6666;51.626;7.530;2023-05-10T13:04:07;18.30;99.90
13203;DHT22;6666;51.626;7.530;2023-05-10T13:06:35;18.30;99.90
13203;DHT22;6666;51.626;7.530;2023-05-10T13:09:03;18.20;99.90
13203;DHT22;6666;51.626;7.530;2023-05-10T13:11:31;18.10;99.90
13203;DHT22;6666;51.626;7.530;2023-05-10T13:14:01;18.20;99.90
13203;DHT22;6666;51.626;7.530;2023-05-10T13:16:29;18.40;99.90
13203;DHT22;6666;51.626;7.530;2023-05-10T13:18:58;18.40;99.90
13203;DHT22;6666;51.626;7.530;2023-05-10T13:21:26;18.10;99.90
13203;DHT22;6666;51.626;7.530;2023-05-10T13:23:54;18.00;99.90
13203;DHT22;6666;51.626;7.530;2023-05-10T13:26:22;17.90;99.90
13203;DHT22;6666;51.626;7.530;2023-05-10T13:28:50;18.00;99.90
13203;DHT22;6666;51.626;7.530;2023-05-10T13:31:20;18.10;99.90
13203;DHT22;6666;51.626;7.530;2023-05-10T13:33:48;18.20;99.90
13203;DHT22;6666;51.626;7.530;2023-05-10T13:36:16;18.40;99.90
13203;DHT22;6666;51.626;7.530;2023-05-10T13:38:44;18.50;99.90
13203;DHT22;6666;51.626;7.530;2023-05-10T13:41:13;18.70;99.90
13203;DHT22;6666;51.626;7.530;2023-05-10T13:43:41;18.70;99.90
13203;DHT22;6666;51.626;7.530;2023-05-10T13:46:09;18.80;99.90
13203;DHT22;6666;51.626;7.530;2023-05-10T13:48:38;19.10;99.90
13203;DHT22;6666;51.626;7.530;2023-05-10T13:51:06;18.90;99.90
13203;DHT22;6666;51.626;7.530;2023-05-10T13:53:35;18.90;99.90
13203;DHT22;6666;51.626;7.530;2023-05-10T13:56:03;19.20;99.90
13203;DHT22;6666;51.626;7.530;2023-05-10T13:58:31;18.80;99.90
13203;DHT22;6666;51.626;7.530;2023-05-10T14:00:59;18.70;99.90
13203;DHT22;6666;51.626;7.530;2023-05-10T14:03:27;18.50;99.90
13203;DHT22;6666;51.626;7.530;2023-05-10T14:05:57;18.40;99.90
13203;DHT22;6666;51.626;7.530;2023-05-10T14:08:25;18.40;99.90
13203;DHT22;6666;51.626;7.530;2023-05-10T14:10:54;18.30;99.90
13203;DHT22;6666;51.626;7.530;2023-05-10T14:13:23;18.30;99.90
13203;DHT22;6666;51.626;7.530;2023-05-10T14:15:53;18.50;99.90
13203;DHT22;6666;51.626;7.530;2023-05-10T14:18:21;18.60;99.90
13203;DHT22;6666;51.626;7.530;2023-05-10T14:20:49;18.70;99.90
13203;DHT22;6666;51.626;7.530;2023-05-10T14:23:19;18.90;99.90
13203;DHT22;6666;51.626;7.530;2023-05-10T14:25:50;19.00;99.90
13203;DHT22;6666;51.626;7.530;2023-05-10T14:28:19;18.90;99.90
13203;DHT22;6666;51.626;7.530;2023-05-10T14:30:47;18.70;99.90
13203;DHT22;6666;51.626;7.530;2023-05-10T14:33:16;18.70;99.90
13203;DHT22;6666;51.626;7.530;2023-05-10T14:35:45;18.70;99.90
13203;DHT22;6666;51.626;7.530;2023-05-10T14:38:13;18.80;99.90
13203;DHT22;6666;51.626;7.530;2023-05-10T14:40:43;19.00;99.90
13203;DHT22;6666;51.626;7.530;2023-05-10T14:43:11;18.80;99.90
13203;DHT22;6666;51.626;7.530;2023-05-10T14:45:39;18.70;99.90
13203;DHT22;6666;51.626;7.530;2023-05-10T14:48:07;18.70;99.90
13203;DHT22;6666;51.626;7.530;2023-05-10T14:50:38;18.80;99.90
13203;DHT22;6666;51.626;7.530;2023-05-10T14:53:06;18.80;99.90
13203;DHT22;6666;51.626;7.530;2023-05-10T14:55:35;18.60;99.90
13203;DHT22;6666;51.626;7.530;2023-05-10T14:58:05;18.70;99.90
13203;DHT22;6666;51.626;7.530;2023-05-10T15:00:33;18.80;99.90
13203;DHT22;6666;51.626;7.530;2023-05-10T15:03:02;18.80;99.90
13203;DHT22;6666;51.626;7.530;2023-05-10T15:05:31;18.80;99.90
13203;DHT22;6666;51.626;7.530;2023-05-10T15:08:00;18.90;99.90
13203;DHT22;6666;51.626;7.530;2023-05-10T15:10:28;18.90;99.90
13203;DHT22;6666;51.626;7.530;2023-05-10T15:12:58;19.00;99.90
13203;DHT22;6666;51.626;7.530;2023-05-10T15:15:28;19.00;99.90
13203;DHT22;6666;51.626;7.530;2023-05-10T15:17:56;19.00;99.90
13203;DHT22;6666;51.626;7.530;2023-05-10T15:20:24;19.10;99.90
13203;DHT22;6666;51.626;7.530;2023-05-10T15:22:53;19.20;99.90
13203;DHT22;6666;51.626;7.530;2023-05-10T15:25:21;19.10;99.90
13203;DHT22;6666;51.626;7.530;2023-05-10T15:27:50;19.00;99.90
13203;DHT22;6666;51.626;7.530;2023-05-10T15:30:18;18.80;99.90
13203;DHT22;6666;51.626;7.530;2023-05-10T15:32:47;18.70;99.90
13203;DHT22;6666;51.626;7.530;2023-05-10T15:35:16;18.70;99.90
13203;DHT22;6666;51.626;7.530;2023-05-10T15:37:46;18.60;99.90
13203;DHT22;6666;51.626;7.530;2023-05-10T15:40:15;18.90;99.90
13203;DHT22;6666;51.626;7.530;2023-05-10T15:42:43;19.10;99.90
13203;DHT22;6666;51.626;7.530;2023-05-10T15:45:11;19.10;99.90
13203;DHT22;6666;51.626;7.530;2023-05-10T15:47:39;19.20;99.90
13203;DHT22;6666;51.626;7.530;2023-05-10T15:50:10;19.20;99.90
13203;DHT22;6666;51.626;7.530;2023-05-10T15:52:38;19.20;99.90
13203;DHT22;6666;51.626;7.530;2023-05-10T15:55:07;19.20;99.90
13203;DHT22;6666;51.626;7.530;2023-05-10T15:57:39;19.10;99.90
13203;DHT22;6666;51.626;7.530;2023-05-10T16:00:08;19.10;99.90
13203;DHT22;6666;51.626;7.530;2023-05-10T16:02:40;18.90;99.90
13203;DHT22;6666;51.626;7.530;2023-05-10T16:05:10;18.70;99.90